createdAt,value
2023-05-03T03:58:51.494Z,108.00
2023-05-03T03:59:51.437Z,120.00
2023-05-03T04:00:51.448Z,128.00
2023-05-03T04:01:51.525Z,140.00
2023-05-03T04:02:51.477Z,148.00
2023-05-03T04:03:51.548Z,156.00
2023-05-03T04:04:51.384Z,168.00
2023-05-03T04:05:51.416Z,180.00
2023-05-03T04:06:51.438Z,188.00
2023-05-03T04:07:51.368Z,200.00
2023-05-03T04:08:51.368Z,208.00
2023-05-03T04:09:51.360Z,220.00
2023-05-03T04:10:51.361Z,232.00
2023-05-03T04:11:51.362Z,244.00
2023-05-03T04:12:51.350Z,252.00
2023-05-03T04:13:51.364Z,268.00
2023-05-03T04:14:51.391Z,276.00
2023-05-03T04:15:51.340Z,288.00
2023-05-03T04:16:51.350Z,296.00
2023-05-03T04:17:51.344Z,312.00
2023-05-03T04:18:51.326Z,320.00
2023-05-03T04:19:51.334Z,332.00
2023-05-03T04:20:51.312Z,344.00
2023-05-03T04:21:51.308Z,356.00
2023-05-03T04:22:51.316Z,368.00
2023-05-03T04:23:51.334Z,376.00
2023-05-03T04:24:51.287Z,388.00
2023-05-03T04:25:51.286Z,400.00
2023-05-03T04:26:51.277Z,412.00
2023-05-03T04:27:51.274Z,424.00
2023-05-03T04:28:51.289Z,440.00
2023-05-03T04:29:51.287Z,452.00
2023-05-03T04:30:51.346Z,464.00
2023-05-03T04:31:51.252Z,480.00
2023-05-03T04:32:51.274Z,488.00
2023-05-03T04:33:51.246Z,504.00
2023-05-03T04:34:52.560Z,520.00
2023-05-03T04:35:51.261Z,532.00
2023-05-03T04:36:51.231Z,540.00
2023-05-03T04:37:51.233Z,556.00
2023-05-03T04:38:51.236Z,564.00
2023-05-03T04:39:51.258Z,572.00
2023-05-03T04:40:51.252Z,584.00
2023-05-03T04:41:51.246Z,592.00
2023-05-03T04:42:51.222Z,600.00
2023-05-03T04:43:51.212Z,608.00
2023-05-03T04:44:51.212Z,616.00
2023-05-03T04:45:51.242Z,624.00
2023-05-03T04:46:51.455Z,640.00
2023-05-03T04:47:51.219Z,676.00
2023-05-03T04:48:51.194Z,712.00
2023-05-03T04:49:51.196Z,748.00
2023-05-03T04:50:51.214Z,744.00
2023-05-03T04:51:51.199Z,724.00
2023-05-03T04:52:51.175Z,792.00
2023-05-03T04:53:51.169Z,876.00
2023-05-03T04:54:51.178Z,888.00
2023-05-03T04:55:51.162Z,844.00
2023-05-03T04:56:51.167Z,784.00
2023-05-03T04:57:51.156Z,780.00
2023-05-03T04:58:51.157Z,804.00
2023-05-03T04:59:51.166Z,800.00
2023-05-03T05:00:51.165Z,796.00
2023-05-03T05:01:51.165Z,820.00
2023-05-03T05:02:51.325Z,852.00
2023-05-03T05:03:51.260Z,900.00
2023-05-03T05:04:51.128Z,936.00
2023-05-03T05:05:51.121Z,940.00
2023-05-03T05:06:51.158Z,960.00
2023-05-03T05:07:51.113Z,956.00
2023-05-03T05:08:51.127Z,968.00
2023-05-03T05:09:51.150Z,944.00
2023-05-03T05:10:51.147Z,896.00
2023-05-03T05:11:51.148Z,920.00
2023-05-03T05:12:51.090Z,1004.00
2023-05-03T05:13:51.087Z,1048.00
2023-05-03T05:14:51.152Z,1084.00
2023-05-03T05:15:51.082Z,1112.00
2023-05-03T05:16:51.158Z,1076.00
2023-05-03T05:17:51.164Z,1004.00
2023-05-03T05:18:51.095Z,984.00
2023-05-03T05:19:51.116Z,1000.00
2023-05-03T05:20:51.147Z,984.00
2023-05-03T05:21:51.056Z,1000.00
2023-05-03T05:22:51.072Z,1044.00
2023-05-03T05:23:51.056Z,1044.00
2023-05-03T05:24:51.057Z,1028.00
2023-05-03T05:25:51.043Z,1036.00
2023-05-03T05:26:51.042Z,1028.00
2023-05-03T05:27:51.054Z,1032.00
2023-05-03T05:28:51.037Z,1064.00
2023-05-03T05:29:51.035Z,1040.00
2023-05-03T05:30:51.045Z,1016.00
2023-05-03T05:31:51.087Z,1040.00
2023-05-03T05:32:51.044Z,1072.00
2023-05-03T05:33:51.023Z,1132.00
2023-05-03T05:34:51.141Z,1388.00
2023-05-03T05:35:51.016Z,1576.00
2023-05-03T05:36:51.027Z,1548.00
2023-05-03T05:37:51.004Z,1500.00
2023-05-03T05:38:51.017Z,1464.00
2023-05-03T05:39:51.045Z,1500.00
2023-05-03T05:40:51.030Z,1560.00
2023-05-03T05:41:50.987Z,1644.00
2023-05-03T05:42:51.023Z,1832.00
2023-05-03T05:43:50.986Z,2040.00
2023-05-03T05:44:50.982Z,2208.00
2023-05-03T05:45:50.972Z,2312.00
2023-05-03T05:46:51.005Z,2360.00
2023-05-03T05:47:51.042Z,2348.00
2023-05-03T05:48:50.976Z,2412.00
2023-05-03T05:49:50.990Z,2524.00
2023-05-03T05:50:51.008Z,2608.00
2023-05-03T05:51:50.960Z,2704.00
2023-05-03T05:52:50.945Z,2840.00
2023-05-03T05:53:51.017Z,2964.00
2023-05-03T05:54:50.978Z,3052.00
2023-05-03T05:55:51.015Z,3112.00
2023-05-03T05:56:50.975Z,3176.00
2023-05-03T05:57:51.082Z,3000.00
2023-05-03T05:58:50.942Z,3244.00
2023-05-03T05:59:52.079Z,3256.00
2023-05-03T06:00:50.931Z,3280.00
2023-05-03T06:01:51.118Z,3296.00
2023-05-03T06:02:51.041Z,3320.00
2023-05-03T06:03:50.912Z,3352.00
2023-05-03T06:04:50.961Z,3380.00
2023-05-03T06:05:50.921Z,3404.00
2023-05-03T06:06:51.212Z,3428.00
2023-05-03T06:07:51.124Z,3448.00
2023-05-03T06:08:50.949Z,3480.00
2023-05-03T06:09:50.975Z,3504.00
2023-05-03T06:10:50.932Z,3528.00
2023-05-03T06:11:50.998Z,3560.00
2023-05-03T06:12:50.952Z,3584.00
2023-05-03T06:13:50.909Z,3612.00
2023-05-03T06:15:01.843Z,3636.00
2023-05-03T06:15:50.942Z,3668.00
2023-05-03T06:16:50.985Z,3696.00
2023-05-03T06:17:50.975Z,3720.00
2023-05-03T06:18:50.944Z,3756.00
2023-05-03T06:19:50.951Z,3788.00
2023-05-03T06:20:50.940Z,3816.00
2023-05-03T06:21:50.898Z,3844.00
2023-05-03T06:22:50.902Z,3868.00
2023-05-03T06:23:50.880Z,3896.00
2023-05-03T06:24:50.849Z,3928.00
2023-05-03T06:25:50.848Z,3960.00
2023-05-03T06:26:50.876Z,3992.00
2023-05-03T06:28:50.854Z,4044.00
2023-05-03T06:29:50.857Z,4068.00
2023-05-03T06:30:50.992Z,4100.00
2023-05-03T06:31:50.861Z,4136.00
2023-05-03T06:32:50.964Z,4172.00
2023-05-03T06:33:50.842Z,4200.00
2023-05-03T06:34:50.860Z,4236.00
2023-05-03T06:35:50.836Z,4264.00
2023-05-03T06:36:50.839Z,4284.00
2023-05-03T06:37:50.898Z,4308.00
2023-05-03T06:38:50.956Z,4328.00
2023-05-03T06:39:50.886Z,4344.00
2023-05-03T06:42:23.373Z,4392.00
2023-05-03T06:43:23.358Z,4420.00
2023-05-03T06:44:23.369Z,4432.00
2023-05-03T06:45:23.467Z,4432.00
2023-05-03T06:46:23.373Z,4456.00
2023-05-03T06:47:23.354Z,4472.00
2023-05-03T06:48:23.604Z,4488.00
2023-05-03T06:49:23.373Z,4500.00
2023-05-03T06:50:23.356Z,4540.00
2023-05-03T06:51:23.363Z,4552.00
2023-05-03T06:52:23.383Z,4576.00
2023-05-03T06:53:23.435Z,4612.00
2023-05-03T06:54:23.366Z,4616.00
2023-05-03T06:55:23.360Z,4636.00
2023-05-03T06:56:23.364Z,4640.00
2023-05-03T06:57:23.339Z,4660.00
2023-05-03T06:58:23.372Z,4672.00
2023-05-03T06:59:23.409Z,4676.00
2023-05-03T07:00:23.358Z,4684.00
2023-05-03T07:01:23.436Z,4680.00
2023-05-03T07:02:23.502Z,4684.00
2023-05-03T07:03:23.524Z,4704.00
2023-05-03T07:04:23.378Z,4716.00
2023-05-03T07:05:23.338Z,4720.00
2023-05-03T07:06:23.456Z,4728.00
2023-05-03T07:07:23.603Z,4744.00
2023-05-03T07:08:23.392Z,4756.00
2023-05-03T07:09:31.745Z,4768.00
2023-05-03T07:10:23.350Z,4776.00
2023-05-03T07:11:23.316Z,4768.00
2023-05-03T07:12:23.336Z,4768.00
2023-05-03T07:13:23.330Z,4764.00
2023-05-03T07:14:23.335Z,4780.00
2023-05-03T07:15:23.317Z,4792.00
2023-05-03T07:16:23.482Z,4820.00
2023-05-03T07:17:23.378Z,4820.00
2023-05-03T07:18:23.338Z,4836.00
2023-05-03T07:19:23.308Z,2152.00
2023-05-03T07:20:23.306Z,1592.00
2023-05-03T07:21:23.309Z,4884.00
2023-05-03T07:22:23.328Z,4976.00
2023-05-03T07:23:23.325Z,4616.00
2023-05-03T07:24:23.296Z,4852.00
2023-05-03T07:25:23.324Z,1768.00
2023-05-03T07:26:23.315Z,1940.00
2023-05-03T07:27:23.576Z,2944.00
2023-05-03T07:28:23.339Z,1828.00
2023-05-03T07:29:23.344Z,5304.00
2023-05-03T07:30:23.374Z,5220.00
2023-05-03T07:31:23.393Z,5160.00
2023-05-03T07:32:23.354Z,5300.00
2023-05-03T07:33:23.836Z,5676.00
2023-05-03T07:34:23.348Z,4076.00
2023-05-03T07:35:23.304Z,1984.00
2023-05-03T07:36:23.512Z,1948.00
2023-05-03T07:37:23.408Z,1924.00
2023-05-03T07:38:23.491Z,1896.00
2023-05-03T07:39:23.295Z,1928.00
2023-05-03T07:40:23.297Z,2024.00
2023-05-03T07:41:23.344Z,2128.00
2023-05-03T07:42:23.422Z,2188.00
2023-05-03T07:43:23.353Z,2152.00
2023-05-03T07:44:26.044Z,2284.00
2023-05-03T07:45:23.302Z,2316.00
2023-05-03T07:46:23.349Z,2336.00
2023-05-03T07:47:23.329Z,2444.00
2023-05-03T07:48:24.203Z,3020.00
2023-05-03T07:49:23.367Z,2640.00
2023-05-03T07:50:23.306Z,2644.00
2023-05-03T07:51:23.288Z,2664.00
2023-05-03T07:52:23.368Z,2708.00
2023-05-03T07:53:23.284Z,2880.00
2023-05-03T07:54:23.328Z,3812.00
2023-05-03T07:55:23.288Z,3472.00
2023-05-03T07:56:23.413Z,3708.00
2023-05-03T07:57:23.327Z,2792.00
2023-05-03T07:58:35.140Z,2832.00
2023-05-03T07:59:23.268Z,5340.00
2023-05-03T08:00:24.386Z,2692.00
2023-05-03T08:01:23.322Z,3028.00
2023-05-03T08:02:23.359Z,2792.00
2023-05-03T08:03:23.493Z,2628.00
2023-05-03T08:04:23.454Z,2612.00
2023-05-03T08:05:23.451Z,2696.00
2023-05-03T08:06:23.456Z,2788.00
2023-05-03T08:07:23.317Z,2804.00
2023-05-03T08:08:23.302Z,2804.00
2023-05-03T08:09:23.322Z,2796.00
2023-05-03T08:10:23.344Z,2884.00
2023-05-03T08:11:23.915Z,2864.00
2023-05-03T08:12:23.266Z,3792.00
2023-05-03T08:13:23.348Z,3092.00
2023-05-03T08:14:23.294Z,6040.00
2023-05-03T08:15:23.260Z,6072.00
2023-05-03T08:16:23.515Z,3008.00
2023-05-03T08:17:23.270Z,3016.00
2023-05-03T08:18:23.950Z,3248.00
2023-05-03T08:19:23.397Z,3388.00
2023-05-03T08:20:23.347Z,3212.00
2023-05-03T08:21:23.318Z,3584.00
2023-05-03T08:22:23.236Z,4568.00
2023-05-03T08:23:23.350Z,3896.00
2023-05-03T08:24:23.301Z,2972.00
2023-05-03T08:25:23.270Z,2888.00
2023-05-03T08:26:23.414Z,2808.00
2023-05-03T08:27:23.386Z,2728.00
2023-05-03T08:28:25.204Z,2664.00
2023-05-03T08:29:23.793Z,2628.00
2023-05-03T08:30:23.371Z,2584.00
2023-05-03T08:31:23.272Z,2560.00
2023-05-03T08:33:23.410Z,2388.00
2023-05-03T08:34:23.273Z,2260.00
2023-05-03T08:35:23.250Z,2196.00
2023-05-03T08:36:23.280Z,2248.00
2023-05-03T08:37:23.388Z,2260.00
2023-05-03T08:38:23.296Z,2284.00
2023-05-03T08:39:23.212Z,2344.00
2023-05-03T08:40:23.255Z,2496.00
2023-05-03T08:41:24.267Z,2316.00
2023-05-03T08:42:25.757Z,2212.00
2023-05-03T08:43:23.354Z,2228.00
2023-05-03T08:44:23.307Z,2348.00
2023-05-03T08:45:23.308Z,2316.00
2023-05-03T08:46:23.349Z,2440.00
2023-05-03T08:47:23.287Z,2812.00
2023-05-03T08:48:23.243Z,3640.00
2023-05-03T08:49:23.356Z,4316.00
2023-05-03T08:50:23.249Z,4680.00
2023-05-03T08:51:23.250Z,4652.00
2023-05-03T08:52:23.250Z,4572.00
2023-05-03T08:53:23.250Z,3752.00
2023-05-03T08:54:23.180Z,3784.00
2023-05-03T08:55:23.193Z,4408.00
2023-05-03T08:56:23.277Z,4412.00
2023-05-03T08:57:23.259Z,4364.00
2023-05-03T08:58:23.172Z,4360.00
2023-05-03T08:59:23.188Z,3000.00
2023-05-03T09:00:23.284Z,4320.00
2023-05-03T09:01:23.286Z,4180.00
2023-05-03T09:02:23.309Z,4216.00
2023-05-03T09:03:23.293Z,4144.00
2023-05-03T09:04:23.239Z,3000.00
2023-05-03T09:05:23.371Z,2220.00
2023-05-03T09:06:23.241Z,2300.00
2023-05-03T09:07:23.206Z,2164.00
2023-05-03T09:08:23.178Z,3196.00
2023-05-03T09:09:23.185Z,4192.00
2023-05-03T09:10:23.222Z,3976.00
2023-05-03T09:11:23.194Z,3912.00
2023-05-03T09:12:23.166Z,4112.00
2023-05-03T09:13:23.311Z,4260.00
2023-05-03T09:14:23.184Z,4308.00
2023-05-03T09:15:23.184Z,3992.00
2023-05-03T09:16:23.199Z,4380.00
2023-05-03T09:17:23.166Z,4460.00
2023-05-03T09:18:23.243Z,4636.00
2023-05-03T09:19:23.168Z,4800.00
2023-05-03T09:20:23.171Z,4828.00
2023-05-03T09:21:23.384Z,4840.00
2023-05-03T09:22:23.174Z,4796.00
2023-05-03T09:23:23.172Z,4832.00
2023-05-03T09:24:25.186Z,4792.00
2023-05-03T09:25:23.307Z,4676.00
2023-05-03T09:27:56.352Z,2968.00
2023-05-03T09:28:56.393Z,2712.00
2023-05-03T09:31:17.414Z,4300.00
2023-05-03T09:31:56.343Z,3524.00
2023-05-03T09:32:56.414Z,3192.00
2023-05-03T09:33:56.552Z,4316.00
2023-05-03T09:34:56.303Z,4200.00
2023-05-03T09:35:56.330Z,4232.00
2023-05-03T09:36:56.363Z,4440.00
2023-05-03T09:37:56.357Z,4512.00
2023-05-03T09:38:56.325Z,4616.00
2023-05-03T09:39:56.323Z,4556.00
2023-05-03T09:40:56.335Z,4432.00
2023-05-03T09:41:56.316Z,4356.00
2023-05-03T09:42:56.378Z,4256.00
2023-05-03T09:43:56.335Z,4292.00
2023-05-03T09:44:56.455Z,3764.00
2023-05-03T09:45:56.558Z,3168.00
2023-05-03T09:46:56.335Z,3504.00
2023-05-03T09:47:56.440Z,3604.00
2023-05-03T09:48:56.353Z,2680.00
2023-05-03T09:49:56.406Z,2804.00
2023-05-03T09:50:56.393Z,2948.00
2023-05-03T09:51:56.392Z,3784.00
2023-05-03T09:52:56.357Z,2576.00
2023-05-03T09:53:56.348Z,2952.00
2023-05-03T09:54:56.429Z,3152.00
2023-05-03T09:55:56.293Z,3028.00
2023-05-03T09:56:56.343Z,2612.00
2023-05-03T09:57:56.331Z,2532.00
2023-05-03T09:58:56.287Z,2376.00
2023-05-03T09:59:56.294Z,2380.00
2023-05-03T10:00:56.341Z,2684.00
2023-05-03T10:01:56.335Z,3732.00
2023-05-03T10:13:18.251Z,2580.00
2023-05-03T10:14:22.747Z,3160.00
2023-05-03T10:15:18.188Z,2776.00
2023-05-03T10:16:18.236Z,3268.00
2023-05-03T10:17:18.299Z,3348.00
2023-05-03T10:18:18.246Z,3524.00
2023-05-03T10:19:18.197Z,3076.00
2023-05-03T10:20:18.264Z,2612.00
2023-05-03T10:21:18.160Z,3424.00
2023-05-03T10:22:18.253Z,3696.00
2023-05-03T10:23:18.161Z,3704.00
2023-05-03T10:24:18.199Z,3796.00
2023-05-03T10:25:18.165Z,3928.00
2023-05-03T10:26:18.160Z,4012.00
2023-05-03T10:27:18.179Z,3896.00
2023-05-03T10:28:18.188Z,3712.00
2023-05-03T10:29:18.188Z,3644.00
2023-05-03T10:30:18.273Z,3628.00
2023-05-03T10:31:18.233Z,3592.00
2023-05-03T10:32:18.168Z,3528.00
2023-05-03T10:33:18.782Z,3532.00
2023-05-03T10:34:18.171Z,3572.00
2023-05-03T10:35:18.178Z,3628.00
2023-05-03T10:36:18.178Z,3644.00
2023-05-03T10:37:18.183Z,3644.00
2023-05-03T10:38:18.175Z,3608.00
2023-05-03T10:39:18.164Z,3572.00
2023-05-03T10:40:18.259Z,3592.00
2023-05-03T10:41:18.180Z,3596.00
2023-05-03T10:42:18.160Z,3584.00
2023-05-03T10:43:18.159Z,3568.00
2023-05-03T10:44:18.168Z,3588.00
2023-05-03T10:45:18.229Z,3632.00
2023-05-03T10:46:18.189Z,3680.00
2023-05-03T10:47:18.170Z,3536.00
2023-05-03T10:48:18.165Z,3700.00
2023-05-03T10:49:18.181Z,3692.00
2023-05-03T10:50:18.209Z,3712.00
2023-05-03T10:51:18.176Z,3724.00
2023-05-03T10:52:18.206Z,3784.00
2023-05-03T10:53:18.185Z,3812.00
2023-05-03T10:55:18.208Z,3868.00
2023-05-03T10:56:18.176Z,3908.00
2023-05-03T10:57:18.189Z,3988.00
2023-05-03T10:58:18.220Z,3984.00
2023-05-03T10:59:18.224Z,3960.00
2023-05-03T11:00:18.213Z,3996.00
2023-05-03T11:01:18.322Z,4060.00
2023-05-03T11:02:18.290Z,4080.00
2023-05-03T11:03:18.334Z,4080.00
2023-05-03T11:04:18.242Z,4184.00
2023-05-03T11:05:18.252Z,4252.00
2023-05-03T11:06:18.381Z,4288.00
2023-05-03T11:07:18.195Z,4344.00
2023-05-03T11:08:18.198Z,4376.00
2023-05-03T11:09:18.243Z,4388.00
2023-05-03T11:10:18.346Z,4456.00
2023-05-03T11:11:18.326Z,4528.00
2023-05-03T11:12:18.345Z,4348.00
2023-05-03T11:13:18.286Z,4448.00
2023-05-03T11:14:18.259Z,4640.00
2023-05-03T11:15:18.251Z,4700.00
2023-05-03T11:16:18.635Z,4684.00
2023-05-03T11:17:18.386Z,4672.00
2023-05-03T11:18:18.320Z,4644.00
2023-05-03T11:19:18.234Z,4688.00
2023-05-03T11:20:18.230Z,4736.00
2023-05-03T11:21:18.299Z,4820.00
2023-05-03T11:22:18.273Z,4836.00
2023-05-03T11:23:18.245Z,4736.00
2023-05-03T11:24:18.231Z,4808.00
2023-05-03T11:25:18.250Z,4860.00
2023-05-03T11:26:18.254Z,4928.00
2023-05-03T11:27:18.277Z,5016.00
2023-05-03T11:28:18.270Z,4980.00
2023-05-03T11:29:18.256Z,5052.00
2023-05-03T11:30:18.286Z,5004.00
2023-05-03T11:31:18.299Z,5012.00
2023-05-03T11:32:18.382Z,5072.00
2023-05-03T11:33:18.365Z,5100.00
2023-05-03T11:34:18.274Z,5192.00
2023-05-03T11:35:18.276Z,5272.00
2023-05-03T11:36:18.356Z,5344.00
2023-05-03T11:37:18.276Z,5380.00
2023-05-03T11:38:18.358Z,5444.00
2023-05-03T11:39:20.209Z,5548.00
2023-05-03T11:40:18.321Z,5380.00
2023-05-03T11:41:18.322Z,5628.00
2023-05-03T11:42:18.309Z,5748.00
2023-05-03T11:43:18.371Z,5816.00
2023-05-03T11:44:18.670Z,5888.00
2023-05-03T11:45:18.581Z,5808.00
2023-05-03T11:46:18.449Z,5916.00
2023-05-03T11:47:18.470Z,6072.00
2023-05-03T11:48:18.406Z,6144.00
2023-05-03T11:49:39.373Z,6088.00
2023-05-03T11:50:18.343Z,6060.00
2023-05-03T11:51:18.321Z,6216.00
2023-05-03T11:52:18.362Z,6376.00
2023-05-03T11:53:18.339Z,6436.00
2023-05-03T11:54:26.176Z,6604.00
2023-05-03T11:55:18.603Z,6472.00
2023-05-03T11:56:18.348Z,6728.00
2023-05-03T11:57:18.362Z,6788.00
2023-05-03T11:58:18.386Z,6832.00
2023-05-03T11:59:18.436Z,6716.00
2023-05-03T12:00:18.366Z,6748.00
2023-05-03T12:01:18.372Z,6968.00
2023-05-03T12:02:18.444Z,7088.00
2023-05-03T12:03:18.619Z,7184.00
2023-05-03T12:04:18.649Z,7276.00
2023-05-03T12:05:18.919Z,7348.00
2023-05-03T12:06:19.255Z,7420.00
2023-05-03T12:07:21.313Z,7340.00
2023-05-03T12:08:20.959Z,7372.00
2023-05-03T12:09:19.302Z,7520.00
2023-05-03T12:10:21.980Z,7548.00
2023-05-03T12:11:19.179Z,7672.00
2023-05-03T12:12:20.882Z,7772.00
2023-05-03T12:13:20.159Z,7948.00
2023-05-03T12:14:19.774Z,7852.00
2023-05-03T12:15:18.905Z,8004.00
2023-05-03T12:16:18.746Z,8184.00
2023-05-03T12:17:19.309Z,8168.00
2023-05-03T12:18:19.105Z,8204.00
2023-05-03T12:19:18.744Z,8424.00
2023-05-03T12:20:51.905Z,8584.00
2023-05-03T12:22:25.720Z,8744.00
2023-05-03T12:23:18.850Z,8836.00
2023-05-03T12:24:20.286Z,8896.00
2023-05-03T12:25:20.374Z,9004.00
2023-05-03T12:26:19.121Z,9008.00
2023-05-03T12:27:19.575Z,9032.00
2023-05-03T12:28:20.937Z,9220.00
2023-05-03T12:29:19.445Z,9316.00
2023-05-03T12:30:18.782Z,9400.00
2023-05-03T12:31:18.676Z,9624.00
2023-05-03T12:32:18.583Z,9756.00
2023-05-03T12:33:21.980Z,9908.00
2023-05-03T12:35:19.940Z,10096.00
2023-05-03T12:36:21.204Z,10452.00
2023-05-03T12:37:21.950Z,10540.00
2023-05-03T12:38:18.730Z,10640.00
2023-05-03T12:39:21.719Z,10744.00
2023-05-03T12:40:33.235Z,11336.00
2023-05-03T12:41:52.020Z,11468.00
2023-05-03T12:42:21.811Z,11728.00
2023-05-03T12:43:18.684Z,12024.00
2023-05-03T12:44:18.687Z,12112.00
2023-05-03T12:46:33.802Z,12384.00
2023-05-03T12:47:28.087Z,12448.00
2023-05-03T12:48:18.771Z,12656.00
2023-05-03T12:49:20.888Z,13056.00
2023-05-03T12:50:19.278Z,13276.00
2023-05-03T12:51:20.268Z,13664.00
2023-05-03T12:52:37.243Z,13072.00
2023-05-03T12:53:18.887Z,14456.00
2023-05-03T12:54:19.189Z,14808.00
2023-05-03T12:55:19.265Z,15300.00
2023-05-03T12:57:23.257Z,16256.00
2023-05-03T13:01:37.195Z,16848.00
2023-05-03T13:04:58.849Z,19136.00
2023-05-03T13:05:51.514Z,19392.00
2023-05-03T13:06:58.224Z,19424.00
2023-05-03T13:07:55.976Z,20064.00
2023-05-03T13:08:51.587Z,19776.00
2023-05-03T13:10:51.424Z,21152.00
2023-05-03T13:11:51.356Z,20960.00
2023-05-03T13:12:51.367Z,20128.00
2023-05-03T13:13:51.302Z,20032.00
2023-05-03T13:14:51.298Z,21856.00
2023-05-03T13:15:51.347Z,23360.00
2023-05-03T13:16:51.629Z,20512.00
2023-05-03T13:17:52.168Z,23008.00
2023-05-03T13:18:51.349Z,23264.00
2023-05-03T13:19:51.439Z,24192.00
2023-05-03T13:20:51.390Z,24448.00
2023-05-03T13:21:51.358Z,24320.00
2023-05-03T13:22:51.365Z,24032.00
2023-05-03T13:23:51.367Z,24256.00
2023-05-03T13:24:51.426Z,24640.00
2023-05-03T13:25:51.394Z,24864.00
2023-05-03T13:26:51.386Z,24544.00
2023-05-03T13:27:51.394Z,23744.00
2023-05-03T13:28:51.403Z,24160.00
2023-05-03T13:29:51.442Z,23808.00
2023-05-03T13:30:51.418Z,23808.00
2023-05-03T13:31:51.484Z,24832.00
2023-05-03T13:32:51.508Z,25312.00
2023-05-03T13:33:51.434Z,24928.00
2023-05-03T13:34:51.441Z,25088.00
2023-05-03T13:35:51.461Z,25248.00
2023-05-03T13:36:51.454Z,25504.00
2023-05-03T13:37:51.481Z,25504.00
2023-05-03T13:38:51.473Z,24128.00
2023-05-03T13:39:52.088Z,25056.00
2023-05-03T13:40:51.527Z,25376.00
2023-05-03T13:41:51.501Z,25024.00
2023-05-03T13:42:51.513Z,24672.00
2023-05-03T13:43:51.506Z,24736.00
2023-05-03T13:44:51.502Z,23552.00
2023-05-03T13:45:51.534Z,22496.00
2023-05-03T13:46:51.551Z,23616.00
2023-05-03T13:48:51.572Z,22752.00
2023-05-03T13:49:51.544Z,23872.00
2023-05-03T13:50:51.598Z,23264.00
2023-05-03T13:51:51.566Z,23616.00
2023-05-03T13:52:51.587Z,23360.00
2023-05-03T13:53:51.577Z,23392.00
2023-05-03T13:54:51.579Z,24928.00
2023-05-03T13:55:51.602Z,25024.00
2023-05-03T13:56:51.702Z,24672.00
2023-05-03T13:57:51.651Z,24064.00
2023-05-03T13:58:51.613Z,24064.00
2023-05-03T13:59:51.646Z,23104.00
2023-05-03T14:00:51.643Z,21920.00
2023-05-03T14:01:51.666Z,22080.00
2023-05-03T14:02:51.723Z,22464.00
2023-05-03T14:03:51.699Z,20544.00
2023-05-03T14:04:51.655Z,20992.00
2023-05-03T14:05:51.680Z,21888.00
2023-05-03T14:06:51.677Z,20704.00
2023-05-03T14:07:51.714Z,22048.00
2023-05-03T14:08:51.680Z,21984.00
2023-05-03T14:09:51.688Z,22336.00
2023-05-03T14:10:51.731Z,22080.00
2023-05-03T14:11:51.704Z,25376.00
2023-05-03T14:12:51.790Z,29056.00
2023-05-03T14:13:56.854Z,27520.00
2023-05-03T14:14:51.740Z,23520.00
2023-05-03T14:15:51.841Z,24448.00
2023-05-03T14:16:51.839Z,36672.00
2023-05-03T14:17:51.819Z,57312.00
2023-05-03T14:18:51.767Z,68928.00
2023-05-03T14:19:51.770Z,61216.00
2023-05-03T14:20:51.801Z,62656.00
2023-05-03T14:21:51.806Z,64640.00
2023-05-03T14:22:51.811Z,64608.00
2023-05-03T14:23:51.817Z,52896.00
2023-05-03T14:24:51.824Z,37056.00
2023-05-03T14:25:51.832Z,25440.00
2023-05-03T14:26:51.836Z,22176.00
2023-05-03T14:27:51.841Z,21536.00
2023-05-03T14:28:51.927Z,14252.00
2023-05-03T14:29:51.859Z,22816.00
2023-05-03T14:30:51.865Z,36832.00
2023-05-03T14:31:51.957Z,52448.00
2023-05-03T14:32:51.941Z,56704.00
2023-05-03T14:33:51.888Z,56640.00
2023-05-03T14:34:51.902Z,60640.00
2023-05-03T14:35:51.914Z,52384.00
2023-05-03T14:36:51.912Z,47680.00
2023-05-03T14:37:51.921Z,48544.00
2023-05-03T14:38:51.922Z,47296.00
2023-05-03T14:39:51.932Z,50560.00
2023-05-03T14:40:51.951Z,56288.00
2023-05-03T14:41:51.947Z,56384.00
2023-05-03T14:42:51.994Z,55072.00
2023-05-03T14:43:51.969Z,55360.00
2023-05-03T14:44:52.048Z,55264.00
2023-05-03T14:45:51.981Z,54624.00
2023-05-03T14:46:52.120Z,55712.00
2023-05-03T14:47:52.057Z,52800.00
2023-05-03T14:48:51.987Z,53312.00
2023-05-03T14:49:52.014Z,52576.00
2023-05-03T14:50:52.048Z,51776.00
2023-05-03T14:51:52.034Z,52928.00
2023-05-03T14:52:52.029Z,52512.00
2023-05-03T14:53:52.043Z,44128.00
2023-05-03T14:54:52.084Z,44736.00
2023-05-03T14:55:52.041Z,47872.00
2023-05-03T14:56:52.053Z,44128.00
2023-05-03T14:57:52.104Z,42784.00
2023-05-03T14:58:52.071Z,42368.00
2023-05-03T14:59:52.141Z,44288.00
2023-05-03T15:00:52.146Z,42976.00
2023-05-03T15:01:52.161Z,42688.00
2023-05-03T15:02:52.205Z,44032.00
2023-05-03T15:03:52.161Z,45184.00
2023-05-03T15:04:52.160Z,46432.00
2023-05-03T15:05:52.155Z,48064.00
2023-05-03T15:06:52.135Z,49376.00
2023-05-03T15:07:52.160Z,50528.00
2023-05-03T15:08:52.174Z,51008.00
2023-05-03T15:09:52.179Z,50240.00
2023-05-03T15:10:52.180Z,49408.00
2023-05-03T15:11:52.168Z,48576.00
2023-05-03T15:12:52.252Z,47552.00
2023-05-03T15:13:52.314Z,47296.00
2023-05-03T15:14:52.228Z,45184.00
2023-05-03T15:15:52.189Z,43008.00
2023-05-03T15:16:52.270Z,43776.00
2023-05-03T15:17:52.215Z,44416.00
2023-05-03T15:18:52.204Z,42944.00
2023-05-03T15:19:52.215Z,46784.00
2023-05-03T15:20:52.276Z,47104.00
2023-05-03T15:21:52.233Z,45536.00
2023-05-03T15:22:52.234Z,44416.00
2023-05-03T15:23:52.272Z,44352.00
2023-05-03T15:24:52.278Z,44032.00
2023-05-03T15:25:52.246Z,41568.00
2023-05-03T15:26:52.279Z,41952.00
2023-05-03T15:27:52.274Z,41728.00
2023-05-03T15:28:52.277Z,39968.00
2023-05-03T15:29:52.260Z,37472.00
2023-05-03T15:30:52.344Z,35584.00
2023-05-03T15:31:52.308Z,33728.00
2023-05-03T15:32:52.337Z,32352.00
2023-05-03T15:33:52.286Z,31520.00
2023-05-03T15:34:52.278Z,32480.00
2023-05-03T15:35:52.286Z,32448.00
2023-05-03T15:36:52.334Z,20768.00
2023-05-03T15:37:52.294Z,6500.00
2023-05-03T15:38:52.307Z,5068.00
2023-05-03T15:39:52.333Z,4680.00
2023-05-03T15:40:52.327Z,4436.00
2023-05-03T15:41:52.356Z,4268.00
2023-05-03T15:42:52.477Z,4104.00
2023-05-03T15:43:52.337Z,3960.00
2023-05-03T15:44:52.328Z,3812.00
2023-05-03T15:45:52.370Z,3792.00
2023-05-03T15:46:52.371Z,3712.00
2023-05-03T15:47:52.377Z,3624.00
2023-05-03T15:48:52.398Z,3544.00
2023-05-03T15:49:52.355Z,3452.00
2023-05-03T15:50:52.348Z,3432.00
2023-05-03T15:51:52.370Z,3348.00
2023-05-03T15:52:52.378Z,3324.00
2023-05-03T15:53:52.381Z,3292.00
2023-05-03T15:54:52.375Z,3228.00
2023-05-03T15:55:52.398Z,3144.00
2023-05-03T15:56:52.374Z,3076.00
2023-05-03T15:57:52.378Z,2992.00
2023-05-03T15:58:52.400Z,2920.00
2023-05-03T15:59:52.400Z,2864.00
2023-05-03T16:00:52.377Z,2820.00
2023-05-03T16:12:30.209Z,2492.00
2023-05-03T16:13:30.070Z,2504.00
2023-05-03T16:14:30.080Z,2496.00
2023-05-03T16:15:30.077Z,2464.00
2023-05-03T16:16:30.134Z,2412.00
2023-05-03T16:17:30.077Z,2352.00
2023-05-03T16:18:30.063Z,2292.00
2023-05-03T16:19:30.072Z,2256.00
2023-05-03T16:20:30.069Z,2200.00
2023-05-03T16:21:30.065Z,2140.00
2023-05-03T16:22:30.051Z,2120.00
2023-05-03T16:23:30.045Z,2120.00
2023-05-03T16:24:30.047Z,2112.00
2023-05-03T16:25:30.095Z,2108.00
2023-05-03T16:26:30.060Z,2112.00
2023-05-03T16:27:30.058Z,2096.00
2023-05-03T16:28:30.078Z,2092.00
2023-05-03T16:29:30.082Z,2068.00
2023-05-03T16:30:30.096Z,2060.00
2023-05-03T16:31:30.169Z,2056.00
2023-05-03T16:32:30.082Z,2020.00
2023-05-03T16:33:30.060Z,2004.00
2023-05-03T16:34:30.054Z,2000.00
2023-05-03T16:35:30.105Z,1976.00
2023-05-03T16:36:30.059Z,1924.00
2023-05-03T16:37:30.055Z,1944.00
2023-05-03T16:38:30.045Z,1944.00
2023-05-03T16:39:30.049Z,1940.00
2023-05-03T16:40:30.066Z,1944.00